METAR Data
IDs: Format: Raw Decoded Include TAF

Data at: 1041 UTC 07 Dec 2022

KECP 071031Z AUTO 11003KT 3SM R16/2200V3500FT BR BKN015 OVC025 20/19 A3024 RMK AO1 T02000189 $